Aviation Digital Data Service (ADDS)

Output produced by METARs form (0507 UTC 24 January 2019)
found at http://www.aviationweather.gov/metar/data/
 
METAR text: LYBE 240500Z 28009KT 1600 SN BR BKN003 OVC030 M01/M01 Q0998 R12/5/1593
Conditions at: LYBE (BELGRADE/SURCIN , CS) observed 0500 UTC 24 January 2019
Temperature: -1.0°C (30°F)
Dewpoint: -1.0°C (30°F) [RH = 100%]
Pressure (altimeter): 29.47 inches Hg (998.0 mb)
Winds: from the W (280 degrees) at 10 MPH (9 knots; 4.6 m/s)
Visibility: 0.99 miles (1.59 km)
Ceiling: 300 feet AGL
Clouds: broken clouds at 300 feet AGL
overcast cloud deck at 3000 feet AGL
Weather: SN BR  (moderate snow, mist)

METAR text: LYBE 240437Z 28009KT 1500 SN BR SCT002 BKN006 OVC030 M01/M01 Q0998 R12/5/1593 NOSIG
Conditions at: LYBE (BELGRADE/SURCIN , CS) observed 0437 UTC 24 January 2019
Temperature: -1.0°C (30°F)
Dewpoint: -1.0°C (30°F) [RH = 100%]
Pressure (altimeter): 29.47 inches Hg (998.0 mb)
Winds: from the W (280 degrees) at 10 MPH (9 knots; 4.6 m/s)
Visibility: 0.93 miles (1.50 km)
Ceiling: 600 feet AGL
Clouds: scattered clouds at 200 feet AGL
broken clouds at 600 feet AGL
overcast cloud deck at 3000 feet AGL
Weather: SN BR  (moderate snow, mist)

METAR text: LYBE 240430Z 28009KT 1500 SN BR SCT002 BKN006 OVC030 M01/M01 Q0998 R12/5/0595 NOSIG
Conditions at: LYBE (BELGRADE/SURCIN , CS) observed 0430 UTC 24 January 2019
Temperature: -1.0°C (30°F)
Dewpoint: -1.0°C (30°F) [RH = 100%]
Pressure (altimeter): 29.47 inches Hg (998.0 mb)
Winds: from the W (280 degrees) at 10 MPH (9 knots; 4.6 m/s)
Visibility: 0.93 miles (1.50 km)
Ceiling: 600 feet AGL
Clouds: scattered clouds at 200 feet AGL
broken clouds at 600 feet AGL
overcast cloud deck at 3000 feet AGL
Weather: SN BR  (moderate snow, mist)

METAR text: LYBE 240400Z 28007KT 1500 SN BR SCT002 BKN006 OVC030 M00/M00 Q0998 R12/5/0595 NOSIG
Conditions at: LYBE (BELGRADE/SURCIN , CS) observed 0400 UTC 24 January 2019
Temperature: 0.0°C (32°F)
Dewpoint: 0.0°C (32°F) [RH = 100%]
Pressure (altimeter): 29.47 inches Hg (998.0 mb)
Winds: from the W (280 degrees) at 8 MPH (7 knots; 3.6 m/s)
Visibility: 0.93 miles (1.50 km)
Ceiling: 600 feet AGL
Clouds: scattered clouds at 200 feet AGL
broken clouds at 600 feet AGL
overcast cloud deck at 3000 feet AGL
Weather: SN BR  (moderate snow, mist)

METAR text: LYBE 240330Z 28006KT 1200 R12/1500N R30/1700N SN BR BKN004 OVC030 M00/M00 Q0998 R12/5/0595 NOSIG
Conditions at: LYBE (BELGRADE/SURCIN , CS) observed 0330 UTC 24 January 2019
Temperature: 0.0°C (32°F)
Dewpoint: 0.0°C (32°F) [RH = 100%]
Pressure (altimeter): 29.47 inches Hg (998.0 mb)
Winds: from the W (280 degrees) at 7 MPH (6 knots; 3.1 m/s)
Visibility: 0.75 miles (1.21 km)
Ceiling: 400 feet AGL
Clouds: broken clouds at 400 feet AGL
overcast cloud deck at 3000 feet AGL
Weather: SN BR  (moderate snow, mist)

METAR text: LYBE 240300Z 28006KT 1400 R12/1900N R30/P2000D SN BR BKN003 OVC030 M00/M00 Q0998 R12/5/0595 NOSIG
Conditions at: LYBE (BELGRADE/SURCIN , CS) observed 0300 UTC 24 January 2019
Temperature: 0.0°C (32°F)
Dewpoint: 0.0°C (32°F) [RH = 100%]
Pressure (altimeter): 29.47 inches Hg (998.0 mb)
Winds: from the W (280 degrees) at 7 MPH (6 knots; 3.1 m/s)
Visibility: 0.87 miles (1.40 km)
Ceiling: 300 feet AGL
Clouds: broken clouds at 300 feet AGL
overcast cloud deck at 3000 feet AGL
Weather: SN BR  (moderate snow, mist)

METAR text: LYBE 240230Z 31006KT 1500 -SN BR SCT002 BKN005 OVC027 M00/M00 Q0998 R12/5/0595 NOSIG
Conditions at: LYBE (BELGRADE/SURCIN , CS) observed 0230 UTC 24 January 2019
Temperature: 0.0°C (32°F)
Dewpoint: 0.0°C (32°F) [RH = 100%]
Pressure (altimeter): 29.47 inches Hg (998.0 mb)
Winds: from the NW (310 degrees) at 7 MPH (6 knots; 3.1 m/s)
Visibility: 0.93 miles (1.50 km)
Ceiling: 500 feet AGL
Clouds: scattered clouds at 200 feet AGL
broken clouds at 500 feet AGL
overcast cloud deck at 2700 feet AGL
Weather: -SN BR  (light snow, mist)

METAR text: LYBE 240200Z 33007KT 1700 -SN BR SCT002 BKN005 OVC027 M00/M00 Q0998 R12/5/0595 NOSIG
Conditions at: LYBE (BELGRADE/SURCIN , CS) observed 0200 UTC 24 January 2019
Temperature: 0.0°C (32°F)
Dewpoint: 0.0°C (32°F) [RH = 100%]
Pressure (altimeter): 29.47 inches Hg (998.0 mb)
Winds: from the NNW (330 degrees) at 8 MPH (7 knots; 3.6 m/s)
Visibility: 1.06 miles (1.71 km)
Ceiling: 500 feet AGL
Clouds: scattered clouds at 200 feet AGL
broken clouds at 500 feet AGL
overcast cloud deck at 2700 feet AGL
Weather: -SN BR  (light snow, mist)

METAR text: LYBE 240130Z 33006KT 1500 -SN BR SCT002 BKN005 OVC027 M00/M00 Q0998 R12/5/0595 NOSIG
Conditions at: LYBE (BELGRADE/SURCIN , CS) observed 0130 UTC 24 January 2019
Temperature: 0.0°C (32°F)
Dewpoint: 0.0°C (32°F) [RH = 100%]
Pressure (altimeter): 29.47 inches Hg (998.0 mb)
Winds: from the NNW (330 degrees) at 7 MPH (6 knots; 3.1 m/s)
Visibility: 0.93 miles (1.50 km)
Ceiling: 500 feet AGL
Clouds: scattered clouds at 200 feet AGL
broken clouds at 500 feet AGL
overcast cloud deck at 2700 feet AGL
Weather: -SN BR  (light snow, mist)

METAR text: LYBE 240100Z 34007KT 1300 R12/1900N R30/2000D -SN BR SCT003 BKN005 OVC027 M00/M00 Q0998 R12/5/0595 NOSIG
Conditions at: LYBE (BELGRADE/SURCIN , CS) observed 0100 UTC 24 January 2019
Temperature: 0.0°C (32°F)
Dewpoint: 0.0°C (32°F) [RH = 100%]
Pressure (altimeter): 29.47 inches Hg (998.0 mb)
Winds: from the NNW (340 degrees) at 8 MPH (7 knots; 3.6 m/s)
Visibility: 0.81 miles (1.30 km)
Ceiling: 500 feet AGL
Clouds: scattered clouds at 300 feet AGL
broken clouds at 500 feet AGL
overcast cloud deck at 2700 feet AGL
Weather: -SN BR  (light snow, mist)

METAR text: LYBE 240030Z 34006KT 2200 -SN BR SCT003 BKN005 OVC027 M00/M00 Q0999 R12/5/0595 NOSIG
Conditions at: LYBE (BELGRADE/SURCIN , CS) observed 0030 UTC 24 January 2019
Temperature: 0.0°C (32°F)
Dewpoint: 0.0°C (32°F) [RH = 100%]
Pressure (altimeter): 29.50 inches Hg (999.0 mb)
Winds: from the NNW (340 degrees) at 7 MPH (6 knots; 3.1 m/s)
Visibility: 1.37 miles (2.20 km)
Ceiling: 500 feet AGL
Clouds: scattered clouds at 300 feet AGL
broken clouds at 500 feet AGL
overcast cloud deck at 2700 feet AGL
Weather: -SN BR  (light snow, mist)

METAR text: LYBE 240008Z 35006KT 1900 -SN BR BKN003 OVC005 M00/M00 Q0998 R12/5/0595 NOSIG
Conditions at: LYBE (BELGRADE/SURCIN , CS) observed 0008 UTC 24 January 2019
Temperature: 0.0°C (32°F)
Dewpoint: 0.0°C (32°F) [RH = 100%]
Pressure (altimeter): 29.47 inches Hg (998.0 mb)
Winds: from the N (350 degrees) at 7 MPH (6 knots; 3.1 m/s)
Visibility: 1.18 miles (1.90 km)
Ceiling: 300 feet AGL
Clouds: broken clouds at 300 feet AGL
overcast cloud deck at 500 feet AGL
Weather: -SN BR  (light snow, mist)

METAR text: LYBE 240000Z 35007KT 1900 -SN BR BKN003 OVC005 M00/M00 Q0998 R12/1///95 NOSIG
Conditions at: LYBE (BELGRADE/SURCIN , CS) observed 0000 UTC 24 January 2019
Temperature: 0.0°C (32°F)
Dewpoint: 0.0°C (32°F) [RH = 100%]
Pressure (altimeter): 29.47 inches Hg (998.0 mb)
Winds: from the N (350 degrees) at 8 MPH (7 knots; 3.6 m/s)
Visibility: 1.18 miles (1.90 km)
Ceiling: 300 feet AGL
Clouds: broken clouds at 300 feet AGL
overcast cloud deck at 500 feet AGL
Weather: -SN BR  (light snow, mist)

METAR text: LYBE 232330Z 34006KT 1600 -SN BR BKN002 OVC004 M00/M00 Q0999 R12/1///95 NOSIG
Conditions at: LYBE (BELGRADE/SURCIN , CS) observed 2330 UTC 23 January 2019
Temperature: 0.0°C (32°F)
Dewpoint: 0.0°C (32°F) [RH = 100%]
Pressure (altimeter): 29.50 inches Hg (999.0 mb)
Winds: from the NNW (340 degrees) at 7 MPH (6 knots; 3.1 m/s)
Visibility: 0.99 miles (1.59 km)
Ceiling: 200 feet AGL
Clouds: broken clouds at 200 feet AGL
overcast cloud deck at 400 feet AGL
Weather: -SN BR  (light snow, mist)

METAR text: LYBE 232300Z 34005KT 1000 R12/1100U R30/1100N -SN BR BKN003 OVC004 M00/M00 Q0999 R12/1///95 NOSIG
Conditions at: LYBE (BELGRADE/SURCIN , CS) observed 2300 UTC 23 January 2019
Temperature: 0.0°C (32°F)
Dewpoint: 0.0°C (32°F) [RH = 100%]
Pressure (altimeter): 29.50 inches Hg (999.0 mb)
Winds: from the NNW (340 degrees) at 6 MPH (5 knots; 2.6 m/s)
Visibility: 0.62 miles (1.00 km)
Ceiling: 300 feet AGL
Clouds: broken clouds at 300 feet AGL
overcast cloud deck at 400 feet AGL
Weather: -SN BR  (light snow, mist)

METAR text: LYBE 232230Z 35007KT 0600 R12/0650N R30/0800N -SN FG OVC003 00/M00 Q0999 R12/1///95 NOSIG
Conditions at: LYBE (BELGRADE/SURCIN , CS) observed 2230 UTC 23 January 2019
Temperature: 0.0°C (32°F)
Dewpoint: 0.0°C (32°F) [RH = 100%]
Pressure (altimeter): 29.50 inches Hg (999.0 mb)
Winds: from the N (350 degrees) at 8 MPH (7 knots; 3.6 m/s)
Visibility: 0.37 miles (0.60 km)
Ceiling: 300 feet AGL
Clouds: overcast cloud deck at 300 feet AGL
Weather: -SN FG  (light snow, fog)

METAR text: LYBE 232200Z 36007KT 0500 R12/0600N R30/0600N FG VV003 00/M00 Q0999 R12/1///95 NOSIG
Conditions at: LYBE (BELGRADE/SURCIN , CS) observed 2200 UTC 23 January 2019
Temperature: 0.0°C (32°F)
Dewpoint: 0.0°C (32°F) [RH = 100%]
Pressure (altimeter): 29.50 inches Hg (999.0 mb)
Winds: from the N (360 degrees) at 8 MPH (7 knots; 3.6 m/s)
Visibility: 0.31 miles (0.50 km)
Ceiling: indefinite ceiling with vertical visibility of 300 feet AGL
Clouds: obscured sky
Weather: FG  (fog)

METAR text: LYBE 232130Z 01005KT 0600 R12/0650N R30/0800N FG VV003 00/M00 Q0999 R12/1///95 NOSIG
Conditions at: LYBE (BELGRADE/SURCIN , CS) observed 2130 UTC 23 January 2019
Temperature: 0.0°C (32°F)
Dewpoint: 0.0°C (32°F) [RH = 100%]
Pressure (altimeter): 29.50 inches Hg (999.0 mb)
Winds: from the N (10 degrees) at 6 MPH (5 knots; 2.6 m/s)
Visibility: 0.37 miles (0.60 km)
Ceiling: indefinite ceiling with vertical visibility of 300 feet AGL
Clouds: obscured sky
Weather: FG  (fog)

METAR text: LYBE 232100Z 01005KT 0500 R12/0650N R30/1000N FG VV003 00/00 Q0999 R12/1///95 NOSIG
Conditions at: LYBE (BELGRADE/SURCIN , CS) observed 2100 UTC 23 January 2019
Temperature: 0.0°C (32°F)
Dewpoint: 0.0°C (32°F) [RH = 100%]
Pressure (altimeter): 29.50 inches Hg (999.0 mb)
Winds: from the N (10 degrees) at 6 MPH (5 knots; 2.6 m/s)
Visibility: 0.31 miles (0.50 km)
Ceiling: indefinite ceiling with vertical visibility of 300 feet AGL
Clouds: obscured sky
Weather: FG  (fog)

METAR text: LYBE 232030Z 01005KT 0600 R12/0650N R30/1400U FG VV003 00/00 Q0999 R12/1///95 NOSIG
Conditions at: LYBE (BELGRADE/SURCIN , CS) observed 2030 UTC 23 January 2019
Temperature: 0.0°C (32°F)
Dewpoint: 0.0°C (32°F) [RH = 100%]
Pressure (altimeter): 29.50 inches Hg (999.0 mb)
Winds: from the N (10 degrees) at 6 MPH (5 knots; 2.6 m/s)
Visibility: 0.37 miles (0.60 km)
Ceiling: indefinite ceiling with vertical visibility of 300 feet AGL
Clouds: obscured sky
Weather: FG  (fog)

METAR text: LYBE 232000Z 36005KT 0600 R12/0700N R30/0900N FG VV003 00/00 Q1000 R12/1///95 NOSIG
Conditions at: LYBE (BELGRADE/SURCIN , CS) observed 2000 UTC 23 January 2019
Temperature: 0.0°C (32°F)
Dewpoint: 0.0°C (32°F) [RH = 100%]
Pressure (altimeter): 29.53 inches Hg (1000.0 mb)
Winds: from the N (360 degrees) at 6 MPH (5 knots; 2.6 m/s)
Visibility: 0.37 miles (0.60 km)
Ceiling: indefinite ceiling with vertical visibility of 300 feet AGL
Clouds: obscured sky
Weather: FG  (fog)

METAR text: LYBE 231930Z 01006KT 0600 R12/0900N R30/0650N FG VV003 00/00 Q0999 R12/1///95 NOSIG
Conditions at: LYBE (BELGRADE/SURCIN , CS) observed 1930 UTC 23 January 2019
Temperature: 0.0°C (32°F)
Dewpoint: 0.0°C (32°F) [RH = 100%]
Pressure (altimeter): 29.50 inches Hg (999.0 mb)
Winds: from the N (10 degrees) at 7 MPH (6 knots; 3.1 m/s)
Visibility: 0.37 miles (0.60 km)
Ceiling: indefinite ceiling with vertical visibility of 300 feet AGL
Clouds: obscured sky
Weather: FG  (fog)

METAR text: LYBE 231900Z 36006KT 0500 R12/0700N R30/0650N FG VV003 00/00 Q1000 R12/1///95 NOSIG
Conditions at: LYBE (BELGRADE/SURCIN , CS) observed 1900 UTC 23 January 2019
Temperature: 0.0°C (32°F)
Dewpoint: 0.0°C (32°F) [RH = 100%]
Pressure (altimeter): 29.53 inches Hg (1000.0 mb)
Winds: from the N (360 degrees) at 7 MPH (6 knots; 3.1 m/s)
Visibility: 0.31 miles (0.50 km)
Ceiling: indefinite ceiling with vertical visibility of 300 feet AGL
Clouds: obscured sky
Weather: FG  (fog)

METAR text: LYBE 231830Z 36005KT 0600 R12/0700N R30/0900N FG VV003 00/00 Q1000 R12/1///95 NOSIG
Conditions at: LYBE (BELGRADE/SURCIN , CS) observed 1830 UTC 23 January 2019
Temperature: 0.0°C (32°F)
Dewpoint: 0.0°C (32°F) [RH = 100%]
Pressure (altimeter): 29.53 inches Hg (1000.0 mb)
Winds: from the N (360 degrees) at 6 MPH (5 knots; 2.6 m/s)
Visibility: 0.37 miles (0.60 km)
Ceiling: indefinite ceiling with vertical visibility of 300 feet AGL
Clouds: obscured sky
Weather: FG  (fog)

METAR text: LYBE 231800Z 01004KT 0400 R12/0600N R30/0750N FG VV003 00/00 Q1000 R12/1///95 NOSIG
Conditions at: LYBE (BELGRADE/SURCIN , CS) observed 1800 UTC 23 January 2019
Temperature: 0.0°C (32°F)
Dewpoint: 0.0°C (32°F) [RH = 100%]
Pressure (altimeter): 29.53 inches Hg (1000.0 mb)
Winds: from the N (10 degrees) at 5 MPH (4 knots; 2.1 m/s)
Visibility: 0.25 miles (0.40 km)
Ceiling: indefinite ceiling with vertical visibility of 300 feet AGL
Clouds: obscured sky
Weather: FG  (fog)

METAR text: LYBE 231730Z 02005KT 0400 R12/0700N R30/0900U FG OVC003 00/00 Q1000 R12/1///95 NOSIG
Conditions at: LYBE (BELGRADE/SURCIN , CS) observed 1730 UTC 23 January 2019
Temperature: 0.0°C (32°F)
Dewpoint: 0.0°C (32°F) [RH = 100%]
Pressure (altimeter): 29.53 inches Hg (1000.0 mb)
Winds: from the NNE (20 degrees) at 6 MPH (5 knots; 2.6 m/s)
Visibility: 0.25 miles (0.40 km)
Ceiling: 300 feet AGL
Clouds: overcast cloud deck at 300 feet AGL
Weather: FG  (fog)

METAR text: LYBE 231700Z 02007KT 0500 R12/0900D R30/1000N FG OVC003 00/00 Q1000 R12/1///95 NOSIG
Conditions at: LYBE (BELGRADE/SURCIN , CS) observed 1700 UTC 23 January 2019
Temperature: 0.0°C (32°F)
Dewpoint: 0.0°C (32°F) [RH = 100%]
Pressure (altimeter): 29.53 inches Hg (1000.0 mb)
Winds: from the NNE (20 degrees) at 8 MPH (7 knots; 3.6 m/s)
Visibility: 0.31 miles (0.50 km)
Ceiling: 300 feet AGL
Clouds: overcast cloud deck at 300 feet AGL
Weather: FG  (fog)

METAR text: LYBE 231630Z 36004KT 0500 R12/0750N R30/0700N FG OVC003 00/00 Q1000 R12/1///95 NOSIG
Conditions at: LYBE (BELGRADE/SURCIN , CS) observed 1630 UTC 23 January 2019
Temperature: 0.0°C (32°F)
Dewpoint: 0.0°C (32°F) [RH = 100%]
Pressure (altimeter): 29.53 inches Hg (1000.0 mb)
Winds: from the N (360 degrees) at 5 MPH (4 knots; 2.1 m/s)
Visibility: 0.31 miles (0.50 km)
Ceiling: 300 feet AGL
Clouds: overcast cloud deck at 300 feet AGL
Weather: FG  (fog)

METAR text: LYBE 231600Z 36004KT 0800 R12/1900D R30/1000D FG OVC003 00/00 Q1000 R12/1///95 TEMPO 0600 OVC002
Conditions at: LYBE (BELGRADE/SURCIN , CS) observed 1600 UTC 23 January 2019
Temperature: 0.0°C (32°F)
Dewpoint: 0.0°C (32°F) [RH = 100%]
Pressure (altimeter): 29.53 inches Hg (1000.0 mb)
Winds: from the N (360 degrees) at 5 MPH (4 knots; 2.1 m/s)
Visibility: 0.50 miles (0.80 km)
Ceiling: 300 feet AGL
Clouds: overcast cloud deck at 300 feet AGL
Weather: FG  (fog)

METAR text: LYBE 231530Z 34004KT 1500 BR SCT002 OVC004 00/00 Q1000 R12/2///95 BECMG 0800 FG
Conditions at: LYBE (BELGRADE/SURCIN , CS) observed 1530 UTC 23 January 2019
Temperature: 0.0°C (32°F)
Dewpoint: 0.0°C (32°F) [RH = 100%]
Pressure (altimeter): 29.53 inches Hg (1000.0 mb)
Winds: from the NNW (340 degrees) at 5 MPH (4 knots; 2.1 m/s)
Visibility: 0.93 miles (1.50 km)
Ceiling: 400 feet AGL
Clouds: scattered clouds at 200 feet AGL
overcast cloud deck at 400 feet AGL
Weather: BR  (mist)

METAR text: LYBE 231500Z 35005KT 1500 BR OVC004 00/00 Q1000 R12/2///95 TEMPO 0800 FG
Conditions at: LYBE (BELGRADE/SURCIN , CS) observed 1500 UTC 23 January 2019
Temperature: 0.0°C (32°F)
Dewpoint: 0.0°C (32°F) [RH = 100%]
Pressure (altimeter): 29.53 inches Hg (1000.0 mb)
Winds: from the N (350 degrees) at 6 MPH (5 knots; 2.6 m/s)
Visibility: 0.93 miles (1.50 km)
Ceiling: 400 feet AGL
Clouds: overcast cloud deck at 400 feet AGL
Weather: BR  (mist)

METAR text: LYBE 231430Z 34005KT 1200 R12/P2000D R30/1600D BR BKN003 OVC006 00/00 Q1000 R12/2///95 TEMPO 0800 FG
Conditions at: LYBE (BELGRADE/SURCIN , CS) observed 1430 UTC 23 January 2019
Temperature: 0.0°C (32°F)
Dewpoint: 0.0°C (32°F) [RH = 100%]
Pressure (altimeter): 29.53 inches Hg (1000.0 mb)
Winds: from the NNW (340 degrees) at 6 MPH (5 knots; 2.6 m/s)
Visibility: 0.75 miles (1.21 km)
Ceiling: 300 feet AGL
Clouds: broken clouds at 300 feet AGL
overcast cloud deck at 600 feet AGL
Weather: BR  (mist)

METAR text: LYBE 231400Z 33004KT 2000 BR BKN004 OVC008 00/00 Q1000 R12/2///95 NOSIG
Conditions at: LYBE (BELGRADE/SURCIN , CS) observed 1400 UTC 23 January 2019
Temperature: 0.0°C (32°F)
Dewpoint: 0.0°C (32°F) [RH = 100%]
Pressure (altimeter): 29.53 inches Hg (1000.0 mb)
Winds: from the NNW (330 degrees) at 5 MPH (4 knots; 2.1 m/s)
Visibility: 1.24 miles (2.00 km)
Ceiling: 400 feet AGL
Clouds: broken clouds at 400 feet AGL
overcast cloud deck at 800 feet AGL
Weather: BR  (mist)

METAR text: LYBE 231330Z 35004KT 2000 BR BKN004 OVC008 01/00 Q1000 R12/2///95 NOSIG
Conditions at: LYBE (BELGRADE/SURCIN , CS) observed 1330 UTC 23 January 2019
Temperature: 1.0°C (34°F)
Dewpoint: 0.0°C (32°F) [RH = 93%]
Pressure (altimeter): 29.53 inches Hg (1000.0 mb)
Winds: from the N (350 degrees) at 5 MPH (4 knots; 2.1 m/s)
Visibility: 1.24 miles (2.00 km)
Ceiling: 400 feet AGL
Clouds: broken clouds at 400 feet AGL
overcast cloud deck at 800 feet AGL
Weather: BR  (mist)

METAR text: LYBE 231300Z 36005KT 1500 BR BKN004 OVC010 01/00 Q1000 R12/2///95 NOSIG
Conditions at: LYBE (BELGRADE/SURCIN , CS) observed 1300 UTC 23 January 2019
Temperature: 1.0°C (34°F)
Dewpoint: 0.0°C (32°F) [RH = 93%]
Pressure (altimeter): 29.53 inches Hg (1000.0 mb)
Winds: from the N (360 degrees) at 6 MPH (5 knots; 2.6 m/s)
Visibility: 0.93 miles (1.50 km)
Ceiling: 400 feet AGL
Clouds: broken clouds at 400 feet AGL
overcast cloud deck at 1000 feet AGL
Weather: BR  (mist)

METAR text: LYBE 231230Z 34005KT 1500 BR BKN004 OVC010 01/00 Q1000 R12/2///95 NOSIG
Conditions at: LYBE (BELGRADE/SURCIN , CS) observed 1230 UTC 23 January 2019
Temperature: 1.0°C (34°F)
Dewpoint: 0.0°C (32°F) [RH = 93%]
Pressure (altimeter): 29.53 inches Hg (1000.0 mb)
Winds: from the NNW (340 degrees) at 6 MPH (5 knots; 2.6 m/s)
Visibility: 0.93 miles (1.50 km)
Ceiling: 400 feet AGL
Clouds: broken clouds at 400 feet AGL
overcast cloud deck at 1000 feet AGL
Weather: BR  (mist)

METAR text: LYBE 231200Z 33004KT 1500 R12/1600N R30/1400N BR BKN004 OVC010 01/00 Q1000 R12/2///95 NOSIG
Conditions at: LYBE (BELGRADE/SURCIN , CS) observed 1200 UTC 23 January 2019
Temperature: 1.0°C (34°F)
Dewpoint: 0.0°C (32°F) [RH = 93%]
Pressure (altimeter): 29.53 inches Hg (1000.0 mb)
Winds: from the NNW (330 degrees) at 5 MPH (4 knots; 2.1 m/s)
Visibility: 0.93 miles (1.50 km)
Ceiling: 400 feet AGL
Clouds: broken clouds at 400 feet AGL
overcast cloud deck at 1000 feet AGL
Weather: BR  (mist)

METAR text: LYBE 231130Z 29003KT 1500 R12/1600N R30/1400U BR BKN004 OVC010 01/00 Q1001 R12/2///95 NOSIG
Conditions at: LYBE (BELGRADE/SURCIN , CS) observed 1130 UTC 23 January 2019
Temperature: 1.0°C (34°F)
Dewpoint: 0.0°C (32°F) [RH = 93%]
Pressure (altimeter): 29.56 inches Hg (1001.0 mb)
Winds: from the WNW (290 degrees) at 3 MPH (3 knots; 1.5 m/s)
Visibility: 0.93 miles (1.50 km)
Ceiling: 400 feet AGL
Clouds: broken clouds at 400 feet AGL
overcast cloud deck at 1000 feet AGL
Weather: BR  (mist)

METAR text: LYBE 231100Z 31004KT 1200 R12/1000N R30/1700U BR BKN003 OVC006 00/00 Q1001 R12/2///95 BECMG 2000 BKN005 OVC010
Conditions at: LYBE (BELGRADE/SURCIN , CS) observed 1100 UTC 23 January 2019
Temperature: 0.0°C (32°F)
Dewpoint: 0.0°C (32°F) [RH = 100%]
Pressure (altimeter): 29.56 inches Hg (1001.0 mb)
Winds: from the NW (310 degrees) at 5 MPH (4 knots; 2.1 m/s)
Visibility: 0.75 miles (1.21 km)
Ceiling: 300 feet AGL
Clouds: broken clouds at 300 feet AGL
overcast cloud deck at 600 feet AGL
Weather: BR  (mist)

METAR text: LYBE 231030Z 29003KT 250V320 1200 R12/1100U R30/P2000U BR BKN003 OVC006 00/00 Q1001 R12/2///95 BECMG 2000 BKN005 OVC010
Conditions at: LYBE (BELGRADE/SURCIN , CS) observed 1030 UTC 23 January 2019
Temperature: 0.0°C (32°F)
Dewpoint: 0.0°C (32°F) [RH = 100%]
Pressure (altimeter): 29.56 inches Hg (1001.0 mb)
Winds: from the WNW (290 degrees) at 3 MPH (3 knots; 1.5 m/s)
Visibility: 0.75 miles (1.21 km)
Ceiling: 300 feet AGL
Clouds: broken clouds at 300 feet AGL
overcast cloud deck at 600 feet AGL
Weather: BR  (mist)

METAR text: LYBE 231000Z VRB02KT 1000 R12/1000N R30/1400D BR BKN003 OVC006 00/00 Q1001 R12/2///95 BECMG 2000 BKN005 OVC010
Conditions at: LYBE (BELGRADE/SURCIN , CS) observed 1000 UTC 23 January 2019
Temperature: 0.0°C (32°F)
Dewpoint: 0.0°C (32°F) [RH = 100%]
Pressure (altimeter): 29.56 inches Hg (1001.0 mb)
Winds: variable direction winds at 2 MPH (2 knots; 1.0 m/s)
Visibility: 0.62 miles (1.00 km)
Ceiling: 300 feet AGL
Clouds: broken clouds at 300 feet AGL
overcast cloud deck at 600 feet AGL
Weather: BR  (mist)

METAR text: LYBE 230930Z VRB02KT 0600 R12/0550D R30/2000U FG BKN003 OVC006 00/00 Q1002 R12/2///95 NOSIG
Conditions at: LYBE (BELGRADE/SURCIN , CS) observed 0930 UTC 23 January 2019
Temperature: 0.0°C (32°F)
Dewpoint: 0.0°C (32°F) [RH = 100%]
Pressure (altimeter): 29.59 inches Hg (1002.0 mb)
Winds: variable direction winds at 2 MPH (2 knots; 1.0 m/s)
Visibility: 0.37 miles (0.60 km)
Ceiling: 300 feet AGL
Clouds: broken clouds at 300 feet AGL
overcast cloud deck at 600 feet AGL
Weather: FG  (fog)

METAR text: LYBE 230900Z 28002KT 1000 R12/1100N R30/1800N BR BKN002 OVC006 00/00 Q1002 R12/2///95 NOSIG
Conditions at: LYBE (BELGRADE/SURCIN , CS) observed 0900 UTC 23 January 2019
Temperature: 0.0°C (32°F)
Dewpoint: 0.0°C (32°F) [RH = 100%]
Pressure (altimeter): 29.59 inches Hg (1002.0 mb)
Winds: from the W (280 degrees) at 2 MPH (2 knots; 1.0 m/s)
Visibility: 0.62 miles (1.00 km)
Ceiling: 200 feet AGL
Clouds: broken clouds at 200 feet AGL
overcast cloud deck at 600 feet AGL
Weather: BR  (mist)

METAR text: LYBE 230830Z 27002KT 1000 R12/1100N R30/1500U BR BKN002 OVC005 00/00 Q1002 R12/2///95 NOSIG
Conditions at: LYBE (BELGRADE/SURCIN , CS) observed 0830 UTC 23 January 2019
Temperature: 0.0°C (32°F)
Dewpoint: 0.0°C (32°F) [RH = 100%]
Pressure (altimeter): 29.59 inches Hg (1002.0 mb)
Winds: from the W (270 degrees) at 2 MPH (2 knots; 1.0 m/s)
Visibility: 0.62 miles (1.00 km)
Ceiling: 200 feet AGL
Clouds: broken clouds at 200 feet AGL
overcast cloud deck at 500 feet AGL
Weather: BR  (mist)

METAR text: LYBE 230800Z VRB02KT 1000 R12/1300U R30/1300N BR BKN002 OVC006 M00/M00 Q1002 R12/2///95 TEMPO 0600 FZFG
Conditions at: LYBE (BELGRADE/SURCIN , CS) observed 0800 UTC 23 January 2019
Temperature: 0.0°C (32°F)
Dewpoint: 0.0°C (32°F) [RH = 100%]
Pressure (altimeter): 29.59 inches Hg (1002.0 mb)
Winds: variable direction winds at 2 MPH (2 knots; 1.0 m/s)
Visibility: 0.62 miles (1.00 km)
Ceiling: 200 feet AGL
Clouds: broken clouds at 200 feet AGL
overcast cloud deck at 600 feet AGL
Weather: BR  (mist)

METAR text: LYBE 230730Z 23004KT 1200 R12/1400U R30/1300N BR BKN002 OVC006 M00/M00 Q1002 R12/2///95 NOSIG
Conditions at: LYBE (BELGRADE/SURCIN , CS) observed 0730 UTC 23 January 2019
Temperature: 0.0°C (32°F)
Dewpoint: 0.0°C (32°F) [RH = 100%]
Pressure (altimeter): 29.59 inches Hg (1002.0 mb)
Winds: from the SW (230 degrees) at 5 MPH (4 knots; 2.1 m/s)
Visibility: 0.75 miles (1.21 km)
Ceiling: 200 feet AGL
Clouds: broken clouds at 200 feet AGL
overcast cloud deck at 600 feet AGL
Weather: BR  (mist)

METAR text: LYBE 230700Z 23003KT 1000 R12/P2000D R30/1000N BR SCT002 BKN006 M00/M00 Q1002 R12/2///95 TEMPO 0600 FZFG BKN002
Conditions at: LYBE (BELGRADE/SURCIN , CS) observed 0700 UTC 23 January 2019
Temperature: 0.0°C (32°F)
Dewpoint: 0.0°C (32°F) [RH = 100%]
Pressure (altimeter): 29.59 inches Hg (1002.0 mb)
Winds: from the SW (230 degrees) at 3 MPH (3 knots; 1.5 m/s)
Visibility: 0.62 miles (1.00 km)
Ceiling: 600 feet AGL
Clouds: scattered clouds at 200 feet AGL
broken clouds at 600 feet AGL
Weather: BR  (mist)

METAR text: LYBE 230630Z 19003KT 150V230 1000 R12/P2000D R30/1300D BR SCT002 BKN006 M00/M00 Q1002 R12/5/0595 TEMPO 0600 FZFG BKN002
Conditions at: LYBE (BELGRADE/SURCIN , CS) observed 0630 UTC 23 January 2019
Temperature: 0.0°C (32°F)
Dewpoint: 0.0°C (32°F) [RH = 100%]
Pressure (altimeter): 29.59 inches Hg (1002.0 mb)
Winds: from the S (190 degrees) at 3 MPH (3 knots; 1.5 m/s)
Visibility: 0.62 miles (1.00 km)
Ceiling: 600 feet AGL
Clouds: scattered clouds at 200 feet AGL
broken clouds at 600 feet AGL
Weather: BR  (mist)

METAR text: LYBE 230600Z 20003KT 1500 1000N R12/P2000N R30/P2000N BR SCT001 BKN002 M00/M00 Q1002 R12/5/0595 TEMPO 0600 FZFG
Conditions at: LYBE (BELGRADE/SURCIN , CS) observed 0600 UTC 23 January 2019
Temperature: 0.0°C (32°F)
Dewpoint: 0.0°C (32°F) [RH = 100%]
Pressure (altimeter): 29.59 inches Hg (1002.0 mb)
Winds: from the SSW (200 degrees) at 3 MPH (3 knots; 1.5 m/s)
Visibility: 0.93 miles (1.50 km)
Ceiling: 200 feet AGL
Clouds: scattered clouds at 100 feet AGL
broken clouds at 200 feet AGL
Weather: BR  (mist)

METAR text: LYBE 230530Z 21003KT 4000 BR BKN004 BKN010 M00/M00 Q1002 R12/5/0595 TEMPO 3000 BKN003
Conditions at: LYBE (BELGRADE/SURCIN , CS) observed 0530 UTC 23 January 2019
Temperature: 0.0°C (32°F)
Dewpoint: 0.0°C (32°F) [RH = 100%]
Pressure (altimeter): 29.59 inches Hg (1002.0 mb)
Winds: from the SSW (210 degrees) at 3 MPH (3 knots; 1.5 m/s)
Visibility: 2.49 miles (4.01 km)
Ceiling: 400 feet AGL
Clouds: broken clouds at 400 feet AGL
broken clouds at 1000 feet AGL
Weather: BR  (mist)

METAR text: LYBE 230500Z 20003KT 4500 BR BKN004 BKN010 00/M00 Q1002 R12/5/0595 TEMPO 3000
Conditions at: LYBE (BELGRADE/SURCIN , CS) observed 0500 UTC 23 January 2019
Temperature: 0.0°C (32°F)
Dewpoint: 0.0°C (32°F) [RH = 100%]
Pressure (altimeter): 29.59 inches Hg (1002.0 mb)
Winds: from the SSW (200 degrees) at 3 MPH (3 knots; 1.5 m/s)
Visibility: 2.80 miles (4.51 km)
Ceiling: 400 feet AGL
Clouds: broken clouds at 400 feet AGL
broken clouds at 1000 feet AGL
Weather: BR  (mist)

METAR text: LYBE 230430Z 15003KT 5000 BR BKN004 BKN010 M00/M00 Q1001 R12/5/1094 NOSIG
Conditions at: LYBE (BELGRADE/SURCIN , CS) observed 0430 UTC 23 January 2019
Temperature: 0.0°C (32°F)
Dewpoint: 0.0°C (32°F) [RH = 100%]
Pressure (altimeter): 29.56 inches Hg (1001.0 mb)
Winds: from the SSE (150 degrees) at 3 MPH (3 knots; 1.5 m/s)
Visibility: 3 miles ( 5 km)
Ceiling: 400 feet AGL
Clouds: broken clouds at 400 feet AGL
broken clouds at 1000 feet AGL
Weather: BR  (mist)

METAR text: LYBE 230400Z 14002KT 6000 BKN004 BKN010 M00/M00 Q1001 R12/5/1094 NOSIG
Conditions at: LYBE (BELGRADE/SURCIN , CS) observed 0400 UTC 23 January 2019
Temperature: 0.0°C (32°F)
Dewpoint: 0.0°C (32°F) [RH = 100%]
Pressure (altimeter): 29.56 inches Hg (1001.0 mb)
Winds: from the SE (140 degrees) at 2 MPH (2 knots; 1.0 m/s)
Visibility: 4 miles ( 6 km)
Ceiling: 400 feet AGL
Clouds: broken clouds at 400 feet AGL
broken clouds at 1000 feet AGL
Weather: no significant weather observed at this time

METAR text: LYBE 230330Z VRB01KT 8000 BKN005 M00/M00 Q1002 R12/5/1094 NOSIG
Conditions at: LYBE (BELGRADE/SURCIN , CS) observed 0330 UTC 23 January 2019
Temperature: 0.0°C (32°F)
Dewpoint: 0.0°C (32°F) [RH = 100%]
Pressure (altimeter): 29.59 inches Hg (1002.0 mb)
Winds: variable direction winds at 1 MPH (1 knots; 0.5 m/s)
Visibility: 5 miles ( 8 km)
Ceiling: 500 feet AGL
Clouds: broken clouds at 500 feet AGL
Weather: no significant weather observed at this time

METAR text: LYBE 230300Z 10001KT 7000 BKN006 M00/M01 Q1002 R12/5/1094 NOSIG
Conditions at: LYBE (BELGRADE/SURCIN , CS) observed 0300 UTC 23 January 2019
Temperature: 0.0°C (32°F)
Dewpoint: -1.0°C (30°F) [RH = 93%]
Pressure (altimeter): 29.59 inches Hg (1002.0 mb)
Winds: from the E (100 degrees) at 1 MPH (1 knots; 0.5 m/s)
Visibility: 4 miles ( 7 km)
Ceiling: 600 feet AGL
Clouds: broken clouds at 600 feet AGL
Weather: no significant weather observed at this time

METAR text: LYBE 230230Z 05002KT 7000 BKN008 M00/M01 Q1002 R12/5/1094 NOSIG
Conditions at: LYBE (BELGRADE/SURCIN , CS) observed 0230 UTC 23 January 2019
Temperature: 0.0°C (32°F)
Dewpoint: -1.0°C (30°F) [RH = 93%]
Pressure (altimeter): 29.59 inches Hg (1002.0 mb)
Winds: from the NE (50 degrees) at 2 MPH (2 knots; 1.0 m/s)
Visibility: 4 miles ( 7 km)
Ceiling: 800 feet AGL
Clouds: broken clouds at 800 feet AGL
Weather: no significant weather observed at this time

METAR text: LYBE 230200Z 03002KT 5000 BR BKN009 M00/M01 Q1002 R12/5/1094 NOSIG
Conditions at: LYBE (BELGRADE/SURCIN , CS) observed 0200 UTC 23 January 2019
Temperature: 0.0°C (32°F)
Dewpoint: -1.0°C (30°F) [RH = 93%]
Pressure (altimeter): 29.59 inches Hg (1002.0 mb)
Winds: from the NNE (30 degrees) at 2 MPH (2 knots; 1.0 m/s)
Visibility: 3 miles ( 5 km)
Ceiling: 900 feet AGL
Clouds: broken clouds at 900 feet AGL
Weather: BR  (mist)

METAR text: LYBE 230130Z 36002KT 8000 BKN011 M00/M01 Q1003 R12/5/1094 NOSIG
Conditions at: LYBE (BELGRADE/SURCIN , CS) observed 0130 UTC 23 January 2019
Temperature: 0.0°C (32°F)
Dewpoint: -1.0°C (30°F) [RH = 93%]
Pressure (altimeter): 29.62 inches Hg (1003.0 mb)
Winds: from the N (360 degrees) at 2 MPH (2 knots; 1.0 m/s)
Visibility: 5 miles ( 8 km)
Ceiling: 1100 feet AGL
Clouds: broken clouds at 1100 feet AGL
Weather: no significant weather observed at this time

METAR text: LYBE 230100Z VRB02KT 8000 BKN011 M00/M00 Q1002 R12/5/1094 NOSIG
Conditions at: LYBE (BELGRADE/SURCIN , CS) observed 0100 UTC 23 January 2019
Temperature: 0.0°C (32°F)
Dewpoint: 0.0°C (32°F) [RH = 100%]
Pressure (altimeter): 29.59 inches Hg (1002.0 mb)
Winds: variable direction winds at 2 MPH (2 knots; 1.0 m/s)
Visibility: 5 miles ( 8 km)
Ceiling: 1100 feet AGL
Clouds: broken clouds at 1100 feet AGL
Weather: no significant weather observed at this time

METAR text: LYBE 230030Z 06003KT 7000 BKN011 M00/M01 Q1003 R12/5/1094 NOSIG
Conditions at: LYBE (BELGRADE/SURCIN , CS) observed 0030 UTC 23 January 2019
Temperature: 0.0°C (32°F)
Dewpoint: -1.0°C (30°F) [RH = 93%]
Pressure (altimeter): 29.62 inches Hg (1003.0 mb)
Winds: from the ENE (60 degrees) at 3 MPH (3 knots; 1.5 m/s)
Visibility: 4 miles ( 7 km)
Ceiling: 1100 feet AGL
Clouds: broken clouds at 1100 feet AGL
Weather: no significant weather observed at this time

METAR text: LYBE 230000Z 07003KT 7000 -SG BKN013 M00/M01 Q1003 R12/5/1094 NOSIG
Conditions at: LYBE (BELGRADE/SURCIN , CS) observed 0000 UTC 23 January 2019
Temperature: 0.0°C (32°F)
Dewpoint: -1.0°C (30°F) [RH = 93%]
Pressure (altimeter): 29.62 inches Hg (1003.0 mb)
Winds: from the ENE (70 degrees) at 3 MPH (3 knots; 1.5 m/s)
Visibility: 4 miles ( 7 km)
Ceiling: 1300 feet AGL
Clouds: broken clouds at 1300 feet AGL
Weather: -SG  (light snow grains)

METAR text: LYBE 222330Z 09006KT 4500 -SG BKN010 BKN015 M01/M01 Q1003 RESN R12/5/1094 NOSIG
Conditions at: LYBE (BELGRADE/SURCIN , CS) observed 2330 UTC 22 January 2019
Temperature: -1.0°C (30°F)
Dewpoint: -1.0°C (30°F) [RH = 100%]
Pressure (altimeter): 29.62 inches Hg (1003.0 mb)
Winds: from the E (90 degrees) at 7 MPH (6 knots; 3.1 m/s)
Visibility: 2.80 miles (4.51 km)
Ceiling: 1000 feet AGL
Clouds: broken clouds at 1000 feet AGL
broken clouds at 1500 feet AGL
Weather: -SG  (light snow grains)

METAR text: LYBE 222300Z 10004KT 2500 SN BKN009 BKN015 M01/M01 Q1004 R12/5/1094 BECMG 4000 -SN
Conditions at: LYBE (BELGRADE/SURCIN , CS) observed 2300 UTC 22 January 2019
Temperature: -1.0°C (30°F)
Dewpoint: -1.0°C (30°F) [RH = 100%]
Pressure (altimeter): 29.65 inches Hg (1004.0 mb)
Winds: from the E (100 degrees) at 5 MPH (4 knots; 2.1 m/s)
Visibility: 1.55 miles (2.49 km)
Ceiling: 900 feet AGL
Clouds: broken clouds at 900 feet AGL
broken clouds at 1500 feet AGL
Weather: SN  (moderate snow)

METAR text: LYBE 222230Z 09005KT 4000 -SN FEW006 BKN009 M01/M01 Q1004 R12/5/1094 BECMG 1500 SN BKN005
Conditions at: LYBE (BELGRADE/SURCIN , CS) observed 2230 UTC 22 January 2019
Temperature: -1.0°C (30°F)
Dewpoint: -1.0°C (30°F) [RH = 100%]
Pressure (altimeter): 29.65 inches Hg (1004.0 mb)
Winds: from the E (90 degrees) at 6 MPH (5 knots; 2.6 m/s)
Visibility: 2.49 miles (4.01 km)
Ceiling: 900 feet AGL
Clouds: few clouds at 600 feet AGL
broken clouds at 900 feet AGL
Weather: -SN  (light snow)

METAR text: LYBE 222200Z 10005KT 5000 -SN FEW006 BKN009 M01/M01 Q1005 R12/5/1094 BECMG FM2230 2000 SN BKN005
Conditions at: LYBE (BELGRADE/SURCIN , CS) observed 2200 UTC 22 January 2019
Temperature: -1.0°C (30°F)
Dewpoint: -1.0°C (30°F) [RH = 100%]
Pressure (altimeter): 29.68 inches Hg (1005.0 mb)
Winds: from the E (100 degrees) at 6 MPH (5 knots; 2.6 m/s)
Visibility: 3 miles ( 5 km)
Ceiling: 900 feet AGL
Clouds: few clouds at 600 feet AGL
broken clouds at 900 feet AGL
Weather: -SN  (light snow)

METAR text: LYBE 222130Z 10006KT 3800 -SN SCT010 BKN019 OVC040 M01/M01 Q1005 R12/5/1094 NOSIG
Conditions at: LYBE (BELGRADE/SURCIN , CS) observed 2130 UTC 22 January 2019
Temperature: -1.0°C (30°F)
Dewpoint: -1.0°C (30°F) [RH = 100%]
Pressure (altimeter): 29.68 inches Hg (1005.0 mb)
Winds: from the E (100 degrees) at 7 MPH (6 knots; 3.1 m/s)
Visibility: 2.36 miles (3.80 km)
Ceiling: 1900 feet AGL
Clouds: scattered clouds at 1000 feet AGL
broken clouds at 1900 feet AGL
overcast cloud deck at 4000 feet AGL
Weather: -SN  (light snow)

METAR text: LYBE 222100Z 10008KT 3000 -SN FEW007 BKN019 OVC033 M01/M01 Q1005 R12/5/1094 NOSIG
Conditions at: LYBE (BELGRADE/SURCIN , CS) observed 2100 UTC 22 January 2019
Temperature: -1.0°C (30°F)
Dewpoint: -1.0°C (30°F) [RH = 100%]
Pressure (altimeter): 29.68 inches Hg (1005.0 mb)
Winds: from the E (100 degrees) at 9 MPH (8 knots; 4.1 m/s)
Visibility: 1.86 miles (2.99 km)
Ceiling: 1900 feet AGL
Clouds: few clouds at 700 feet AGL
broken clouds at 1900 feet AGL
overcast cloud deck at 3300 feet AGL
Weather: -SN  (light snow)

METAR text: LYBE 222030Z 10008KT 3000 -SN FEW010 BKN019 OVC030 M01/M01 Q1005 R12/5/0595 BECMG 5000
Conditions at: LYBE (BELGRADE/SURCIN , CS) observed 2030 UTC 22 January 2019
Temperature: -1.0°C (30°F)
Dewpoint: -1.0°C (30°F) [RH = 100%]
Pressure (altimeter): 29.68 inches Hg (1005.0 mb)
Winds: from the E (100 degrees) at 9 MPH (8 knots; 4.1 m/s)
Visibility: 1.86 miles (2.99 km)
Ceiling: 1900 feet AGL
Clouds: few clouds at 1000 feet AGL
broken clouds at 1900 feet AGL
overcast cloud deck at 3000 feet AGL
Weather: -SN  (light snow)

METAR text: LYBE 222000Z 10007KT 2500 SN FEW005 BKN019 OVC027 M00/M01 Q1006 R12/5/0595 NOSIG
Conditions at: LYBE (BELGRADE/SURCIN , CS) observed 2000 UTC 22 January 2019
Temperature: 0.0°C (32°F)
Dewpoint: -1.0°C (30°F) [RH = 93%]
Pressure (altimeter): 29.70 inches Hg (1006.0 mb)
Winds: from the E (100 degrees) at 8 MPH (7 knots; 3.6 m/s)
Visibility: 1.55 miles (2.49 km)
Ceiling: 1900 feet AGL
Clouds: few clouds at 500 feet AGL
broken clouds at 1900 feet AGL
overcast cloud deck at 2700 feet AGL
Weather: SN  (moderate snow)

METAR text: LYBE 221930Z 10008KT 2500 SN FEW005 BKN019 OVC027 M00/M01 Q1006 R12/5/0595 NOSIG
Conditions at: LYBE (BELGRADE/SURCIN , CS) observed 1930 UTC 22 January 2019
Temperature: 0.0°C (32°F)
Dewpoint: -1.0°C (30°F) [RH = 93%]
Pressure (altimeter): 29.70 inches Hg (1006.0 mb)
Winds: from the E (100 degrees) at 9 MPH (8 knots; 4.1 m/s)
Visibility: 1.55 miles (2.49 km)
Ceiling: 1900 feet AGL
Clouds: few clouds at 500 feet AGL
broken clouds at 1900 feet AGL
overcast cloud deck at 2700 feet AGL
Weather: SN  (moderate snow)

METAR text: LYBE 221900Z 10008KT 3000 SN BKN017 OVC028 00/M02 Q1006 TEMPO 2000
Conditions at: LYBE (BELGRADE/SURCIN , CS) observed 1900 UTC 22 January 2019
Temperature: 0.0°C (32°F)
Dewpoint: -2.0°C (28°F) [RH = 86%]
Pressure (altimeter): 29.70 inches Hg (1006.0 mb)
Winds: from the E (100 degrees) at 9 MPH (8 knots; 4.1 m/s)
Visibility: 1.86 miles (2.99 km)
Ceiling: 1700 feet AGL
Clouds: broken clouds at 1700 feet AGL
overcast cloud deck at 2800 feet AGL
Weather: SN  (moderate snow)

METAR text: LYBE 221830Z 09005KT 9999 -SN BKN017 OVC033 00/M01 Q1007 TEMPO 4000 SN BKN013
Conditions at: LYBE (BELGRADE/SURCIN , CS) observed 1830 UTC 22 January 2019
Temperature: 0.0°C (32°F)
Dewpoint: -1.0°C (30°F) [RH = 93%]
Pressure (altimeter): 29.73 inches Hg (1007.0 mb)
Winds: from the E (90 degrees) at 6 MPH (5 knots; 2.6 m/s)
Visibility: 6 or more miles (10+ km)
Ceiling: 1700 feet AGL
Clouds: broken clouds at 1700 feet AGL
overcast cloud deck at 3300 feet AGL
Weather: -SN  (light snow)

METAR text: LYBE 221800Z 09005KT 9999 -SN BKN016 OVC033 00/M01 Q1007 NOSIG
Conditions at: LYBE (BELGRADE/SURCIN , CS) observed 1800 UTC 22 January 2019
Temperature: 0.0°C (32°F)
Dewpoint: -1.0°C (30°F) [RH = 93%]
Pressure (altimeter): 29.73 inches Hg (1007.0 mb)
Winds: from the E (90 degrees) at 6 MPH (5 knots; 2.6 m/s)
Visibility: 6 or more miles (10+ km)
Ceiling: 1600 feet AGL
Clouds: broken clouds at 1600 feet AGL
overcast cloud deck at 3300 feet AGL
Weather: -SN  (light snow)

METAR text: LYBE 221730Z 08005KT 9999 -SN BKN016 OVC033 00/M00 Q1007 NOSIG
Conditions at: LYBE (BELGRADE/SURCIN , CS) observed 1730 UTC 22 January 2019
Temperature: 0.0°C (32°F)
Dewpoint: 0.0°C (32°F) [RH = 100%]
Pressure (altimeter): 29.73 inches Hg (1007.0 mb)
Winds: from the E (80 degrees) at 6 MPH (5 knots; 2.6 m/s)
Visibility: 6 or more miles (10+ km)
Ceiling: 1600 feet AGL
Clouds: broken clouds at 1600 feet AGL
overcast cloud deck at 3300 feet AGL
Weather: -SN  (light snow)

Forecast for: LYBE (BELGRADE/SURCIN , CS)
Text: TAF LYBE 232300Z 2400/2424 34008KT 1500 -SN BR BKN003 OVC030 TX00/2412Z TNM03/2424Z
Forecast period: 0000 to 1400 UTC 24 January 2019
Forecast type: FROM: standard forecast or significant change
Winds: from the NNW (340 degrees) at 9 MPH (8 knots; 4.1 m/s)
Visibility: 0.93 miles (1.50 km)
Ceiling: 300 feet AGL
Clouds: broken clouds at 300 feet AGL
overcast cloud deck at 3000 feet AGL
Weather: -SN BR  (light snow, mist)
Text: TEMPO 2400/2410 0600 SN BKN002 OVC027
Forecast period: 0000 to 1000 UTC 24 January 2019
Forecast type: TEMPORARY: The following changes expected for less than half the time period
Visibility: 0.37 miles (0.60 km)
Ceiling: 200 feet AGL
Clouds: broken clouds at 200 feet AGL
overcast cloud deck at 2700 feet AGL
Weather: SN  (moderate snow)
Text: BECMG 2414/2416 3000 BKN006 OVC027
Forecast period: 1400 to 1900 UTC 24 January 2019
Forecast type: BECOMING: Conditions expected to become as follows by 1600 UTC 24 January 2019
Winds: from the NNW (340 degrees) at 9 MPH (8 knots; 4.1 m/s)
Visibility: 1.86 miles (2.99 km)
Ceiling: 600 feet AGL
Clouds: broken clouds at 600 feet AGL
overcast cloud deck at 2700 feet AGL
Weather: -SN BR  (light snow, mist)
Text: BECMG 2419/2421 1200 BR OVC004
Forecast period: 1900 UTC 24 January 2019 to 0000 UTC 25 January 2019
Forecast type: BECOMING: Conditions expected to become as follows by 2100 UTC 24 January 2019
Winds: from the NNW (340 degrees) at 9 MPH (8 knots; 4.1 m/s)
Visibility: 0.75 miles (1.21 km)
Ceiling: 400 feet AGL
Clouds: overcast cloud deck at 400 feet AGL
Weather: BR  (mist)